createdAt,value
2023-01-22T00:01:02.709Z,99996.09
2023-01-22T00:03:30.538Z,100003.19
2023-01-22T00:05:57.933Z,100005.84
2023-01-22T00:08:25.381Z,100005.94
2023-01-22T00:10:54.573Z,100008.53
2023-01-22T00:13:23.230Z,100003.37
2023-01-22T00:15:50.883Z,100004.06
2023-01-22T00:18:19.254Z,100006.09
2023-01-22T00:20:51.463Z,100011.34
2023-01-22T00:23:19.226Z,100008.38
2023-01-22T00:25:46.834Z,100013.53
2023-01-22T00:28:15.021Z,100016.94
2023-01-22T00:30:42.915Z,100021.22
2023-01-22T00:33:10.383Z,100025.84
2023-01-22T00:35:37.891Z,100021.66
2023-01-22T00:38:06.154Z,100013.63
2023-01-22T00:40:33.645Z,100009.72
2023-01-22T00:43:01.010Z,100015.31
2023-01-22T00:45:28.802Z,100027.19
2023-01-22T00:47:56.305Z,100021.13
2023-01-22T00:50:23.656Z,100029.16
2023-01-22T00:52:51.573Z,100027.34
2023-01-22T00:55:19.084Z,100019.66
2023-01-22T00:57:46.687Z,100023.00
2023-01-22T01:00:18.142Z,100026.53
2023-01-22T01:03:04.484Z,100032.63
2023-01-22T01:05:32.200Z,100024.19
2023-01-22T01:07:59.824Z,100025.81
2023-01-22T01:10:27.252Z,100030.97
2023-01-22T01:12:54.870Z,100031.09
2023-01-22T01:15:22.336Z,100030.09
2023-01-22T01:17:49.759Z,100033.66
2023-01-22T01:20:17.823Z,100034.44
2023-01-22T01:22:45.470Z,100032.84
2023-01-22T01:25:12.829Z,100039.06
2023-01-22T01:27:42.358Z,100040.87
2023-01-22T01:30:12.098Z,100042.53
2023-01-22T01:32:39.739Z,100046.06
2023-01-22T01:35:07.415Z,100033.87
2023-01-22T01:37:35.916Z,100039.94
2023-01-22T01:40:03.969Z,100040.25
2023-01-22T01:42:32.879Z,100047.56
2023-01-22T01:45:34.429Z,100040.81
2023-01-22T01:48:33.140Z,100041.72
2023-01-22T01:51:07.923Z,100043.50
2023-01-22T01:53:36.415Z,100048.09
2023-01-22T01:56:07.009Z,100037.84
2023-01-22T01:58:36.165Z,100034.13
2023-01-22T02:01:09.190Z,100041.31
2023-01-22T02:03:37.450Z,100034.53
2023-01-22T02:06:05.132Z,100031.31
2023-01-22T02:08:32.832Z,100032.84
2023-01-22T02:11:00.527Z,100036.06
2023-01-22T02:13:31.416Z,100029.16
2023-01-22T02:15:59.673Z,100027.56
2023-01-22T02:18:27.634Z,100022.81
2023-01-22T02:20:57.324Z,100028.22
2023-01-22T02:23:25.789Z,100029.09
2023-01-22T02:25:53.777Z,100030.84
2023-01-22T02:28:22.426Z,100031.78
2023-01-22T02:30:50.315Z,100018.81
2023-01-22T02:33:17.821Z,100025.56
2023-01-22T02:35:45.360Z,100020.72
2023-01-22T02:38:14.152Z,100016.28
2023-01-22T02:40:49.096Z,100021.62
2023-01-22T02:43:17.383Z,100018.66
2023-01-22T02:45:45.060Z,100019.09
2023-01-22T02:48:13.017Z,100011.28
2023-01-22T02:50:40.764Z,100010.25
2023-01-22T02:53:08.096Z,100011.66
2023-01-22T02:55:35.521Z,100006.00
2023-01-22T02:58:03.239Z,100017.50
2023-01-22T03:00:30.717Z,100009.34
2023-01-22T03:03:00.982Z,100013.56
2023-01-22T03:05:28.604Z,100001.25
2023-01-22T03:07:56.366Z,100008.81
2023-01-22T03:10:24.197Z,100005.53
2023-01-22T03:13:10.133Z,100002.25
2023-01-22T03:15:57.591Z,100004.44
2023-01-22T03:18:44.039Z,99999.91
2023-01-22T03:21:18.686Z,99989.28
2023-01-22T03:23:48.929Z,99994.50
2023-01-22T03:26:18.296Z,99994.59
2023-01-22T03:28:47.496Z,99993.56
2023-01-22T03:31:15.750Z,99987.75
2023-01-22T03:33:43.686Z,99993.56
2023-01-22T03:36:13.557Z,99995.63
2023-01-22T03:38:42.160Z,100000.75
2023-01-22T03:41:15.349Z,99994.13
2023-01-22T03:43:44.416Z,99994.69
2023-01-22T03:46:17.340Z,99997.00
2023-01-22T03:48:50.548Z,99988.44
2023-01-22T03:51:18.204Z,99983.56
2023-01-22T03:53:46.765Z,99992.94
2023-01-22T03:56:16.739Z,99988.44
2023-01-22T03:58:44.819Z,99997.00
2023-01-22T04:01:15.407Z,99999.13
2023-01-22T04:03:43.184Z,99996.53
2023-01-22T04:06:12.379Z,100000.53
2023-01-22T04:08:41.787Z,100007.31
2023-01-22T04:11:10.448Z,99995.41
2023-01-22T04:13:39.325Z,100004.03
2023-01-22T04:16:08.009Z,99998.38
2023-01-22T04:18:37.396Z,99998.00
2023-01-22T04:21:05.794Z,99998.00
2023-01-22T04:23:33.488Z,99994.59
2023-01-22T04:26:01.987Z,99996.41
2023-01-22T04:28:30.136Z,99989.47
2023-01-22T04:30:59.685Z,99993.78
2023-01-22T04:33:29.652Z,99998.03
2023-01-22T04:35:57.251Z,100000.56
2023-01-22T04:38:24.741Z,100001.44
2023-01-22T04:40:52.420Z,100000.09
2023-01-22T04:43:20.133Z,100000.03
2023-01-22T04:45:49.662Z,99998.72
2023-01-22T04:48:18.900Z,100004.44
2023-01-22T04:50:47.409Z,100001.50
2023-01-22T04:53:14.876Z,100001.53
2023-01-22T04:55:43.648Z,100002.91
2023-01-22T04:58:13.098Z,100001.25
2023-01-22T05:00:40.652Z,100001.53
2023-01-22T05:03:10.347Z,100002.34
2023-01-22T05:05:37.740Z,100002.28
2023-01-22T05:08:05.209Z,100000.25
2023-01-22T05:10:33.940Z,100009.87
2023-01-22T05:13:04.183Z,100013.56
2023-01-22T05:15:31.993Z,100015.72
2023-01-22T05:18:00.247Z,100016.97
2023-01-22T05:20:28.474Z,100024.69
2023-01-22T05:22:55.822Z,100029.56
2023-01-22T05:25:23.993Z,100032.81
2023-01-22T05:27:51.375Z,100033.00
2023-01-22T05:30:19.613Z,100043.41
2023-01-22T05:32:48.380Z,100046.53
2023-01-22T05:35:16.959Z,100051.84
2023-01-22T05:37:45.300Z,100053.94
2023-01-22T05:40:13.922Z,100054.13
2023-01-22T05:42:44.344Z,100059.22
2023-01-22T05:45:12.156Z,100070.56
2023-01-22T05:47:41.109Z,100067.41
2023-01-22T05:50:09.939Z,100071.66
2023-01-22T05:52:37.449Z,100077.44
2023-01-22T05:55:05.592Z,100084.66
2023-01-22T05:57:35.604Z,100088.03
2023-01-22T06:00:04.540Z,100083.38
2023-01-22T06:02:32.327Z,100090.81
2023-01-22T06:05:01.749Z,100080.41
2023-01-22T06:07:30.735Z,100083.56
2023-01-22T06:09:58.171Z,100084.47
2023-01-22T06:12:25.864Z,100088.75
2023-01-22T06:14:54.194Z,100092.22
2023-01-22T06:17:21.787Z,100100.38
2023-01-22T06:19:50.527Z,100101.81
2023-01-22T06:22:19.225Z,100105.25
2023-01-22T06:24:46.911Z,100111.53
2023-01-22T06:27:14.709Z,100108.25
2023-01-22T06:29:45.747Z,100108.97
2023-01-22T06:32:13.144Z,100123.28
2023-01-22T06:34:41.244Z,100131.31
2023-01-22T06:37:08.691Z,100140.94
2023-01-22T06:39:36.663Z,100142.28
2023-01-22T06:42:04.548Z,100145.97
2023-01-22T06:44:31.932Z,100138.44
2023-01-22T06:46:59.431Z,100144.47
2023-01-22T06:49:27.301Z,100138.44
2023-01-22T06:51:55.261Z,100135.69
2023-01-22T06:54:23.362Z,100146.22
2023-01-22T06:56:51.056Z,100143.75
2023-01-22T06:59:18.566Z,100153.69
2023-01-22T07:01:45.956Z,100153.25
2023-01-22T07:04:13.558Z,100154.25
2023-01-22T07:06:40.974Z,100155.13
2023-01-22T07:09:08.377Z,100157.19
2023-01-22T07:11:36.026Z,100160.38
2023-01-22T07:14:03.481Z,100174.03
2023-01-22T07:16:30.958Z,100168.12
2023-01-22T07:18:58.667Z,100160.22
2023-01-22T07:21:27.120Z,100165.66
2023-01-22T07:23:54.766Z,100171.16
2023-01-22T07:26:22.460Z,100187.47
2023-01-22T07:28:49.828Z,100188.41
2023-01-22T07:31:17.352Z,100184.09
2023-01-22T07:33:45.063Z,100200.47
2023-01-22T07:36:12.481Z,100196.31
2023-01-22T07:38:39.894Z,100199.87
2023-01-22T07:41:20.199Z,100200.50
2023-01-22T07:43:53.177Z,100197.94
2023-01-22T07:46:20.918Z,100202.47
2023-01-22T07:48:48.321Z,100207.72
2023-01-22T07:51:15.777Z,100208.56
2023-01-22T07:53:43.493Z,100209.47
2023-01-22T07:56:10.862Z,100212.97
2023-01-22T07:58:39.335Z,100213.22
2023-01-22T08:01:07.546Z,100200.25
2023-01-22T08:03:37.742Z,100197.75
2023-01-22T08:06:13.069Z,100195.16
2023-01-22T08:08:42.613Z,100199.53
2023-01-22T08:11:10.058Z,100207.59
2023-01-22T08:13:37.419Z,100213.69
2023-01-22T08:16:05.428Z,100234.22
2023-01-22T08:18:32.828Z,100239.81
2023-01-22T08:21:01.239Z,100236.16
2023-01-22T08:23:29.320Z,100244.25
2023-01-22T08:26:01.003Z,100243.72
2023-01-22T08:28:28.759Z,100246.16
2023-01-22T08:31:00.179Z,100253.13
2023-01-22T08:33:28.130Z,100254.00
2023-01-22T08:35:55.843Z,100257.63
2023-01-22T08:38:23.419Z,100258.84
2023-01-22T08:40:51.707Z,100266.50
2023-01-22T08:43:19.545Z,100263.81
2023-01-22T08:45:50.326Z,100264.81
2023-01-22T08:48:18.025Z,100273.25
2023-01-22T08:50:45.671Z,100280.13
2023-01-22T08:53:13.092Z,100280.56
2023-01-22T08:55:40.542Z,100280.56
2023-01-22T08:58:09.546Z,100277.97
2023-01-22T09:00:37.059Z,100281.16
2023-01-22T09:03:04.432Z,100288.84
2023-01-22T09:05:32.092Z,100289.84
2023-01-22T09:07:59.438Z,100291.19
2023-01-22T09:10:26.792Z,100292.13
2023-01-22T09:12:54.490Z,100298.28
2023-01-22T09:15:22.020Z,100293.97
2023-01-22T09:17:49.361Z,100304.66
2023-01-22T09:20:17.537Z,100302.75
2023-01-22T09:22:45.840Z,100309.47
2023-01-22T09:25:13.334Z,100315.41
2023-01-22T09:27:41.258Z,100307.69
2023-01-22T09:30:09.718Z,100315.13
2023-01-22T09:32:37.432Z,100311.16
2023-01-22T09:35:05.269Z,100313.75
2023-01-22T09:37:32.692Z,100320.31
2023-01-22T09:40:00.160Z,100313.94
2023-01-22T09:42:34.394Z,100317.53
2023-01-22T09:45:09.877Z,100323.75
2023-01-22T09:47:42.227Z,100327.31
2023-01-22T09:50:24.758Z,100331.50
2023-01-22T09:52:52.738Z,100330.88
2023-01-22T09:55:23.156Z,100330.22
2023-01-22T09:57:53.546Z,100329.16
2023-01-22T10:00:24.656Z,100329.91
2023-01-22T10:03:00.889Z,100327.63
2023-01-22T10:05:38.204Z,100324.06
2023-01-22T10:08:09.079Z,100324.13
2023-01-22T10:10:36.652Z,100333.62
2023-01-22T10:13:16.643Z,100330.12
2023-01-22T10:15:44.591Z,100327.81
2023-01-22T10:19:08.787Z,100328.63
2023-01-22T10:21:52.458Z,100332.88
2023-01-22T10:24:19.861Z,100328.13
2023-01-22T10:26:54.299Z,100329.97
2023-01-22T10:29:31.907Z,100337.19
2023-01-22T10:32:02.080Z,100334.47
2023-01-22T10:34:32.894Z,100339.00
2023-01-22T10:37:03.384Z,100340.59
2023-01-22T10:39:44.938Z,100344.78
2023-01-22T10:42:23.524Z,100345.91
2023-01-22T10:44:55.618Z,100342.19
2023-01-22T10:47:24.963Z,100339.78
2023-01-22T10:50:04.792Z,100338.78
2023-01-22T10:52:37.226Z,100339.72
2023-01-22T10:55:05.169Z,100348.97
2023-01-22T10:57:35.260Z,100343.56
2023-01-22T11:00:26.164Z,100350.41
2023-01-22T11:02:53.804Z,100355.47
2023-01-22T11:05:30.857Z,100355.78
2023-01-22T11:08:07.223Z,100361.72
2023-01-22T11:11:06.646Z,100353.75
2023-01-22T11:13:58.223Z,100353.94
2023-01-22T11:16:25.870Z,100357.28
2023-01-22T11:19:03.148Z,100350.31
2023-01-22T11:21:51.473Z,100354.84
2023-01-22T11:24:31.789Z,100348.97
2023-01-22T11:27:31.609Z,100357.00
2023-01-22T11:30:21.533Z,100359.41
2023-01-22T11:35:28.209Z,100362.69
2023-01-22T11:38:30.965Z,100370.66
2023-01-22T11:41:17.560Z,100375.97
2023-01-22T11:44:03.619Z,100382.81
2023-01-22T11:46:58.833Z,100378.63
2023-01-22T11:49:31.870Z,100379.25
2023-01-22T11:52:33.243Z,100383.28
2023-01-22T11:55:08.527Z,100378.00
2023-01-22T11:57:45.743Z,100377.53
2023-01-22T12:00:37.494Z,100382.75
2023-01-22T12:03:26.265Z,100384.41
2023-01-22T12:05:56.471Z,100382.81
2023-01-22T12:08:57.958Z,100384.53
2023-01-22T12:11:40.472Z,100398.31
2023-01-22T12:14:14.188Z,100400.06
2023-01-22T12:16:57.813Z,100404.62
2023-01-22T12:19:40.750Z,100411.34
2023-01-22T12:22:17.240Z,100408.75
2023-01-22T12:24:48.583Z,100410.44
2023-01-22T12:27:24.231Z,100408.88
2023-01-22T12:30:21.215Z,100415.63
2023-01-22T12:32:53.346Z,100422.81
2023-01-22T12:35:22.336Z,100416.53
2023-01-22T12:37:53.244Z,100417.47
2023-01-22T12:40:32.064Z,100417.63
2023-01-22T12:43:02.127Z,100412.19
2023-01-22T12:45:45.362Z,100419.06
2023-01-22T12:48:25.780Z,100420.19
2023-01-22T12:50:55.520Z,100423.69
2023-01-22T12:53:28.527Z,100430.44
2023-01-22T12:56:02.287Z,100436.66
2023-01-22T12:58:31.908Z,100437.47
2023-01-22T13:01:11.730Z,100439.50
2023-01-22T13:03:41.098Z,100446.38
2023-01-22T13:06:30.999Z,100446.41
2023-01-22T13:08:58.476Z,100445.56
2023-01-22T13:11:37.995Z,100444.84
2023-01-22T13:14:18.465Z,100437.81
2023-01-22T13:16:55.056Z,100442.88
2023-01-22T13:19:28.316Z,100443.06
2023-01-22T13:22:00.425Z,100459.91
2023-01-22T13:24:28.049Z,100460.91
2023-01-22T13:27:00.049Z,100462.75
2023-01-22T13:29:37.436Z,100473.16
2023-01-22T13:32:15.451Z,100467.09
2023-01-22T13:34:42.921Z,100474.28
2023-01-22T13:37:23.697Z,100490.63
2023-01-22T13:39:51.180Z,100487.87
2023-01-22T13:42:18.996Z,100496.59
2023-01-22T13:44:48.944Z,100491.25
2023-01-22T13:47:32.188Z,100506.19
2023-01-22T13:50:00.379Z,100504.63
2023-01-22T13:52:28.930Z,100507.25
2023-01-22T13:55:03.500Z,100506.81
2023-01-22T13:57:31.268Z,100516.50
2023-01-22T14:00:00.378Z,100520.88
2023-01-22T14:02:34.600Z,100529.59
2023-01-22T14:05:02.495Z,100529.59
2023-01-22T14:07:32.188Z,100522.47
2023-01-22T14:10:11.904Z,100526.06
2023-01-22T14:12:39.595Z,100521.78
2023-01-22T14:15:18.176Z,100525.25
2023-01-22T14:17:45.920Z,100533.22
2023-01-22T14:20:13.914Z,100544.38
2023-01-22T14:22:41.632Z,100550.44
2023-01-22T14:25:09.812Z,100547.84
2023-01-22T14:27:41.992Z,100547.94
2023-01-22T14:30:14.467Z,100549.16
2023-01-22T14:32:43.016Z,100552.91
2023-01-22T14:35:21.538Z,100550.66
2023-01-22T14:37:48.975Z,100543.56
2023-01-22T14:40:18.161Z,100553.25
2023-01-22T14:42:46.924Z,100547.88
2023-01-22T14:45:16.638Z,100558.25
2023-01-22T14:47:44.994Z,100562.94
2023-01-22T14:50:12.415Z,100565.69
2023-01-22T14:52:39.791Z,100565.06
2023-01-22T14:55:07.705Z,100573.81
2023-01-22T14:57:35.096Z,100573.22
2023-01-22T15:00:04.690Z,100578.56
2023-01-22T15:02:33.027Z,100581.97
2023-01-22T15:05:00.443Z,100589.75
2023-01-22T15:07:27.870Z,100595.75
2023-01-22T15:09:55.505Z,100596.69
2023-01-22T15:12:23.428Z,100599.37
2023-01-22T15:14:50.912Z,100602.66
2023-01-22T15:17:18.558Z,100603.78
2023-01-22T15:19:45.912Z,100602.09
2023-01-22T15:22:13.517Z,100598.38
2023-01-22T15:24:41.288Z,100600.22
2023-01-22T15:27:08.703Z,100605.38
2023-01-22T15:29:36.090Z,100608.00
2023-01-22T15:32:04.068Z,100609.41
2023-01-22T15:34:31.476Z,100607.06
2023-01-22T15:36:58.889Z,100616.09
2023-01-22T15:39:26.562Z,100620.75
2023-01-22T15:41:54.034Z,100622.53
2023-01-22T15:44:21.723Z,100616.03
2023-01-22T15:46:49.719Z,100628.00
2023-01-22T15:49:18.130Z,100632.25
2023-01-22T15:51:45.491Z,100633.97
2023-01-22T15:54:15.486Z,100636.38
2023-01-22T15:56:43.251Z,100644.59
2023-01-22T15:59:11.586Z,100643.59
2023-01-22T16:01:39.606Z,100647.97
2023-01-22T16:04:08.047Z,100647.97
2023-01-22T16:06:35.468Z,100640.09
2023-01-22T16:09:04.712Z,100637.34
2023-01-22T16:11:33.623Z,100641.75
2023-01-22T16:14:01.329Z,100645.38
2023-01-22T16:16:31.269Z,100641.94
2023-01-22T16:19:00.600Z,100638.31
2023-01-22T16:21:28.171Z,100642.53
2023-01-22T16:23:57.269Z,100638.56
2023-01-22T16:26:30.605Z,100645.38
2023-01-22T16:28:59.584Z,100650.19
2023-01-22T16:31:29.441Z,100656.41
2023-01-22T16:33:59.741Z,100660.00
2023-01-22T16:36:29.527Z,100659.25
2023-01-22T16:38:56.919Z,100670.53
2023-01-22T16:41:27.947Z,100676.81
2023-01-22T16:44:07.898Z,100682.03
2023-01-22T16:46:38.085Z,100679.41
2023-01-22T16:49:09.849Z,100680.19
2023-01-22T16:51:43.058Z,100683.44
2023-01-22T16:54:18.271Z,100681.94
2023-01-22T16:56:45.633Z,100684.37
2023-01-22T16:59:13.532Z,100687.81
2023-01-22T17:01:41.571Z,100688.84
2023-01-22T17:04:09.077Z,100688.84
2023-01-22T17:06:42.785Z,100692.03
2023-01-22T17:09:18.855Z,100695.72
2023-01-22T17:11:50.158Z,100693.91
2023-01-22T17:14:19.749Z,100688.84
2023-01-22T17:16:48.269Z,100702.56
2023-01-22T17:19:16.678Z,100707.84
2023-01-22T17:21:44.778Z,100706.12
2023-01-22T17:24:13.237Z,100704.41
2023-01-22T17:26:42.073Z,100704.28
2023-01-22T17:29:09.910Z,100704.34
2023-01-22T17:31:37.970Z,100711.72
2023-01-22T17:34:08.552Z,100707.59
2023-01-22T17:36:36.072Z,100716.09
2023-01-22T17:39:04.484Z,100722.31
2023-01-22T17:41:32.759Z,100726.94
2023-01-22T17:44:00.355Z,100734.56
2023-01-22T17:46:31.887Z,100733.69
2023-01-22T17:49:01.470Z,100742.97
2023-01-22T17:51:29.557Z,100738.72
2023-01-22T17:53:59.389Z,100739.53
2023-01-22T17:56:30.331Z,100746.44
2023-01-22T17:59:00.185Z,100749.53
2023-01-22T18:01:29.995Z,100754.88
2023-01-22T18:04:00.175Z,100751.34
2023-01-22T18:06:27.624Z,100746.84
2023-01-22T18:08:55.596Z,100742.63
2023-01-22T18:11:27.881Z,100739.97
2023-01-22T18:13:59.643Z,100741.84
2023-01-22T18:16:29.308Z,100747.69
2023-01-22T18:18:58.281Z,100741.75
2023-01-22T18:21:25.700Z,100748.66
2023-01-22T18:23:53.539Z,100743.31
2023-01-22T18:26:23.128Z,100743.19
2023-01-22T18:28:51.174Z,100753.50
2023-01-22T18:31:25.315Z,100754.47
2023-01-22T18:33:54.472Z,100755.13
2023-01-22T18:36:24.920Z,100746.25
2023-01-22T18:38:52.803Z,100756.09
2023-01-22T18:41:25.543Z,100756.16
2023-01-22T18:43:59.539Z,100763.97
2023-01-22T18:46:29.284Z,100744.84
2023-01-22T18:49:01.827Z,100747.41
2023-01-22T18:51:29.422Z,100758.87
2023-01-22T18:53:57.330Z,100763.81
2023-01-22T18:56:28.125Z,100755.13
2023-01-22T18:58:56.587Z,100762.00
2023-01-22T19:01:33.442Z,100759.69
2023-01-22T19:04:03.288Z,100749.75
2023-01-22T19:06:35.798Z,100745.56
2023-01-22T19:09:06.283Z,100744.81
2023-01-22T19:11:36.429Z,100725.56
2023-01-22T19:14:06.372Z,100699.22
2023-01-22T19:16:34.548Z,100698.66
2023-01-22T19:19:07.743Z,100701.09
2023-01-22T19:21:35.483Z,100718.25
2023-01-22T19:24:03.185Z,100735.53
2023-01-22T19:26:32.867Z,100752.34
2023-01-22T19:29:02.697Z,100766.78
2023-01-22T19:31:35.753Z,100767.22
2023-01-22T19:34:05.090Z,100774.38
2023-01-22T19:36:34.680Z,100783.63
2023-01-22T19:39:05.513Z,100782.06
2023-01-22T19:41:33.503Z,100781.47
2023-01-22T19:44:01.611Z,100786.06
2023-01-22T19:46:29.045Z,100789.66
2023-01-22T19:48:57.109Z,100795.75
2023-01-22T19:51:26.932Z,100800.81
2023-01-22T19:53:54.807Z,100796.41
2023-01-22T19:56:25.407Z,100791.12
2023-01-22T19:58:56.791Z,100790.66
2023-01-22T20:01:24.777Z,100788.06
2023-01-22T20:03:54.494Z,100796.13
2023-01-22T20:06:23.404Z,100799.66
2023-01-22T20:08:51.575Z,100799.91
2023-01-22T20:11:19.223Z,100804.41
2023-01-22T20:13:47.460Z,100792.13
2023-01-22T20:16:25.805Z,100789.53
2023-01-22T20:18:54.512Z,100796.28
2023-01-22T20:21:23.388Z,100800.38
2023-01-22T20:23:51.107Z,100802.13
2023-01-22T20:26:21.211Z,100793.41
2023-01-22T20:28:49.464Z,100800.94
2023-01-22T20:31:20.039Z,100806.87
2023-01-22T20:33:47.846Z,100802.72
2023-01-22T20:36:15.558Z,100802.34
2023-01-22T20:38:47.385Z,100809.50
2023-01-22T20:41:16.037Z,100808.38
2023-01-22T20:43:44.283Z,100807.78
2023-01-22T20:46:15.103Z,100805.22
2023-01-22T20:48:43.338Z,100810.75
2023-01-22T20:51:19.532Z,100804.06
2023-01-22T20:53:48.526Z,100809.41
2023-01-22T20:56:18.827Z,100814.91
2023-01-22T20:58:46.326Z,100809.94
2023-01-22T21:01:19.010Z,100819.72
2023-01-22T21:03:47.391Z,100812.16
2023-01-22T21:06:17.231Z,100821.88
2023-01-22T21:08:48.985Z,100823.84
2023-01-22T21:11:18.009Z,100824.84
2023-01-22T21:13:45.772Z,100826.50
2023-01-22T21:16:16.622Z,100818.53
2023-01-22T21:18:46.087Z,100821.91
2023-01-22T21:21:18.264Z,100818.69
2023-01-22T21:23:49.648Z,100809.06
2023-01-22T21:26:19.342Z,100813.59
2023-01-22T21:28:48.317Z,100812.06
2023-01-22T21:31:18.590Z,100819.44
2023-01-22T21:33:46.775Z,100823.84
2023-01-22T21:36:18.236Z,100813.78
2023-01-22T21:38:49.101Z,100815.00
2023-01-22T21:41:18.069Z,100816.94
2023-01-22T21:44:05.569Z,100817.09
2023-01-22T21:46:36.840Z,100812.56
2023-01-22T21:49:17.388Z,100823.72
2023-01-22T21:51:46.890Z,100822.34
2023-01-22T21:54:19.109Z,100817.78
2023-01-22T21:56:46.794Z,100818.59
2023-01-22T21:59:14.323Z,100820.13
2023-01-22T22:01:41.978Z,100831.62
2023-01-22T22:04:09.871Z,100819.94
2023-01-22T22:06:38.292Z,100835.72
2023-01-22T22:09:08.584Z,100826.69
2023-01-22T22:11:36.280Z,100832.47
2023-01-22T22:14:06.519Z,100830.91
2023-01-22T22:16:34.636Z,100829.66
2023-01-22T22:19:02.420Z,100823.94
2023-01-22T22:21:29.852Z,100819.22
2023-01-22T22:23:58.233Z,100824.66
2023-01-22T22:26:26.197Z,100818.94
2023-01-22T22:28:53.713Z,100828.41
2023-01-22T22:31:21.463Z,100822.34
2023-01-22T22:33:51.471Z,100825.03
2023-01-22T22:36:21.668Z,100825.34
2023-01-22T22:38:49.789Z,100819.41
2023-01-22T22:41:26.563Z,100816.47
2023-01-22T22:43:55.505Z,100818.47
2023-01-22T22:46:25.352Z,100813.47
2023-01-22T22:48:53.659Z,100801.06
2023-01-22T22:51:35.848Z,100801.97
2023-01-22T22:54:10.664Z,100795.91
2023-01-22T22:56:38.416Z,100801.22
2023-01-22T22:59:05.930Z,100807.69
2023-01-22T23:01:33.631Z,100796.22
2023-01-22T23:04:01.494Z,100799.72
2023-01-22T23:06:33.246Z,100797.25
2023-01-22T23:09:10.515Z,100799.37
2023-01-22T23:11:38.303Z,100802.38
2023-01-22T23:14:06.202Z,100802.56
2023-01-22T23:16:40.382Z,100812.00
2023-01-22T23:19:34.377Z,100810.03
2023-01-22T23:22:02.031Z,100812.28
2023-01-22T23:24:29.514Z,100813.31
2023-01-22T23:26:57.052Z,100826.28
2023-01-22T23:29:26.821Z,100839.28
2023-01-22T23:31:54.443Z,100833.19
2023-01-22T23:34:22.493Z,100831.28
2023-01-22T23:36:50.795Z,100821.72
2023-01-22T23:39:20.540Z,100816.22
2023-01-22T23:41:48.137Z,100820.78
2023-01-22T23:44:15.851Z,100828.56
2023-01-22T23:46:43.360Z,100821.44
2023-01-22T23:49:11.211Z,100817.28
2023-01-22T23:51:41.205Z,100820.00
2023-01-22T23:54:08.994Z,100811.56
2023-01-22T23:56:36.468Z,100814.50
2023-01-22T23:59:04.502Z,100821.13
